Impacts TAF Board
For situational awareness. Not to be used for flight planning purposes.
IDs:

KCLT - Charlotte/Douglas In, NC, US

Issued at 1120 UTC 17 Dec 2018
Updated at 1231 UTC 17 Dec 2018
Potential Impact None Slight Moderate High
Time<<18/13Z 18/14Z 18/15Z 18/16Z 18/17Z 18/18Z 18/19Z 18/20Z 18/21Z 18/22Z 18/23Z 19/00Z 19/01Z
Type PRVL PRVL PRVL PRVL PRVL
VIS >6 >6 >6 >6 >6
CIG -- -- -- -- --
Cover SKC SKC SKC SKC SKC
FltCat VFR VFR VFR VFR VFR
WX -- -- -- -- --
WDir 30 30 30 30 30
WSpd 3 3 3 3 3
WGst -- -- -- -- --
Raw TAF
KCLT 171120Z 1712/1818 26003KT P6SM FEW250
  FM171500 29005KT P6SM FEW250
  FM180000 29003KT P6SM SKC
  FM180900 03003KT P6SM SKC


METAR Board
Radar Display
Forecast Discussion
For situational awareness. Not to be used for flight planning purposes.